Historyczne dane pomiarowe

Dodano dane terminowe – wersja testowa.

Dane z okresu 1951-2019

Wersja bazy: 1.34 [2019-03-16, lista zmian], aktualizacja planowana na 2019-04-15

Dane meteo z obszaru Polski uzyskane na podstawie danych udostępnionych przez Instytut Meteorologii i Gospodarki Wodnej – Państwowy Instytut Badawczy.

 

Wybierz Datę:    

       

TemperaturaWilgotnośćWiatrCiśnienieOpadyŚniegCzas trwania zjawisk
 Stacja t tx tn tng RH VA  wxwx mslp ppp RRR   cm mm wxwxwxwxwxwxwx
1994-08-14 14.9 18.0 11.8--- 5.0 5.3---- 0.0------------
1994-08-13 17.2 21.0 15.3--- 6.0 3.0---- 5.4------------
1994-08-12 18.0 23.5 13.3--- 6.0 2.0---- 0.0------------
1994-08-11 19.0 25.0 10.3--- 3.3 2.0---- 0.0------------
1994-08-10 19.4 23.1 15.8--- 3.0 1.7---- 0.0------------
1994-08-09 18.1 23.0 13.3--- 6.7 1.3---- 22.6------------
1994-08-08 17.8 24.1 13.8--- 7.0 1.0---- 3.6------------
1994-08-07 22.4 27.5 13.8--- 3.7 1.3---- 0.0------------
1994-08-06 24.8 33.0 15.3--- 1.3 1.3---- 0.0------------
1994-08-05 24.1 31.4 13.8--- 1.3 1.0---- 0.0------------
1994-08-04 22.4 28.4 15.8--- 4.0 1.7---- 12.2------------
1994-08-03 21.2 27.0 14.8--- 4.0 0.0---- 3.5------------
1994-08-02 25.7 33.4 16.8--- 2.7 0.7---- 0.0------------
1994-08-01 27.5 35.0 14.8--- 2.7 2.0---- 0.0------------
1994-07-31 26.0 34.5 13.8--- 2.0 0.3---- 0.0------------
1994-07-30 25.6 34.4 13.3--- 1.7 0.7---- 0.0------------
1994-07-29 24.8 34.4 12.3--- 0.3 1.0---- 0.0------------
1994-07-28 24.6 34.4 11.3--- 1.7 1.3---- 0.0------------
1994-07-27 23.6 32.9 11.8--- 1.7 1.0---- 0.0------------
1994-07-26 22.1 31.9 10.8--- 1.7 0.7---- 0.0------------
1994-07-25 22.1 30.4 9.3--- 2.0 0.7---- 0.0------------
1994-07-24 21.6 29.5 9.8--- 1.3 1.3---- 0.0------------
1994-07-23 20.6 26.9 9.3--- 2.0 1.0---- 0.0------------
1994-07-22 18.5 25.5 8.8--- 1.7 1.3---- 0.0------------
1994-07-21 18.7 26.4 6.8--- 1.7 1.0---- 0.0------------
1994-07-20 16.2 22.1 6.4--- 2.0 1.7---- 0.0------------
1994-07-19 17.5 21.6 10.3--- 1.7 1.7---- 0.0------------
1994-07-18 19.3 23.5 13.8--- 5.3 2.0---- 2.3------------
1994-07-17 20.8 26.5 14.8--- 2.7 1.7---- 1.9------------
1994-07-16 23.4 31.4 11.3--- 2.0 1.3---- 0.0------------
1994-07-15 23.3 30.4 10.3--- 0.3 2.0---- 0.0------------
1994-07-14 23.4 30.4 15.3--- 1.0 2.7---- 0.0------------
1994-07-13 22.7 30.4 10.8--- 2.0 1.3---- 0.0------------
1994-07-12 21.7 29.4 10.3--- 1.3 2.0---- 0.0------------
1994-07-11 19.8 25.0 10.8--- 2.7 1.7---- 0.0------------
1994-07-10 18.3 26.0 11.3--- 3.7 1.3---- 0.0------------
1994-07-09 13.9 17.5 8.8--- 6.0 2.7---- 3.3------------
1994-07-08 15.7 22.1 11.8--- 5.3 1.3---- 14.9------------
1994-07-07 18.8 27.4 7.3--- 3.7 2.3---- 0.0------------
1994-07-06 17.3 23.5 6.4--- 2.3 0.7---- 0.0------------
1994-07-05 18.3 24.0 10.3--- 1.7 1.7---- 0.0------------
1994-07-04 17.6 24.0 7.3--- 1.7 1.3---- 0.0------------
1994-07-03 16.2 23.5 5.4--- 1.0 1.7---- 0.0------------
1994-07-02 15.2 22.0 6.4--- 0.0 2.3---- 0.0------------
1994-07-01 16.8 22.1 10.3--- 2.0 2.7---- 0.0------------
1994-06-30 21.0 29.9 12.8--- 4.7 2.7---- 0.0------------
1994-06-29 21.7 28.9 11.3--- 0.0 0.7---- 0.0------------
1994-06-28 20.8 26.0 12.8--- 0.0 2.0---- 0.0------------
1994-06-27 22.6 28.9 14.8--- 2.0 1.7---- 0.0------------
1994-06-26 19.1 27.9 6.8--- 0.0 3.3---- 0.0------------
1994-06-25 15.3 22.0 8.3--- 1.7 1.0---- 0.0------------
1994-06-24 12.8 17.5 8.3--- 5.7 4.7---- 0.0------------
1994-06-23 15.8 21.6 12.8--- 2.7 8.3---- 0.0------------
1994-06-22 16.9 23.0 6.8--- 4.7 5.3---- 0.0------------
1994-06-21 14.3 20.5 3.9--- 2.0 1.3---- 0.0------------
1994-06-20 14.9 17.0 13.3--- 4.0 5.3---- 0.0------------
1994-06-19 13.4 15.4 11.3--- 6.7 3.0---- 4.9------------
1994-06-18 11.5 17.5 3.9--- 4.0 1.7---- 0.0------------
1994-06-17 11.0 15.4 8.3--- 4.7 3.3---- 1.2------------
1994-06-16 10.6 15.4 4.9--- 5.7 5.3---- 1.1------------
1432.2 ms

 

Źródłem pochodzenia danych jest Instytut Meteorologii i Gospodarki Wodnej – Państwowy Instytut Badawczy. Dane Instytutu Meteorologii i Gospodarki Wodnej – Państwowego Instytutu Badawczego zostały przetworzone.

Dane źródłowe można odnaleźć na stronie https://dane.imgw.pl